Dallas, Texas
Traffic Map
Current Weather Conditions
Dallas, Texas
Few Clouds
Few Clouds
92°
Feels Like: 94°
Wind Chill: 92° Ceiling: Unl
Heat Index: 94° Visibility: 10mi
Dew Point: 65° Wind: 15mph
Humidity: 41% Direction: 160° (SSE)
Pressure: 29.72in Gusts: 0mph
Raw Report DataKDAL 012253Z 16013KT 10SM FEW060 FEW250 33/18 A2972 RMK AO2 SLP057 T03330183
Traffic Incident Summary
Active as of:
Severity:
Category:
InformationThere was an issue retrieving the traffic information for this location. Please try a different location or try again shortly.
Advertisements
Track Severe Weather on mobile